createdAt,value
2022-12-23T00:01:31.276Z,5.68
2022-12-23T00:04:00.624Z,5.18
2022-12-23T00:06:29.092Z,5.47
2022-12-23T00:08:59.432Z,5.82
2022-12-23T00:11:28.930Z,5.28
2022-12-23T00:14:21.280Z,5.15
2022-12-23T00:16:52.397Z,5.50
2022-12-23T00:19:21.435Z,5.50
2022-12-23T00:21:49.896Z,5.70
2022-12-23T00:24:18.393Z,6.07
2022-12-23T00:26:47.006Z,5.35
2022-12-23T00:29:15.478Z,6.82
2022-12-23T00:31:43.988Z,5.80
2022-12-23T00:34:14.187Z,5.80
2022-12-23T00:36:43.243Z,6.22
2022-12-23T00:39:31.045Z,6.47
2022-12-23T00:42:17.357Z,7.07
2022-12-23T00:44:46.014Z,7.78
2022-12-23T00:47:37.124Z,6.97
2022-12-23T00:50:06.406Z,7.78
2022-12-23T00:52:34.829Z,8.07
2022-12-23T00:55:03.299Z,7.13
2022-12-23T00:57:31.750Z,7.13
2022-12-23T01:00:00.242Z,7.32
2022-12-23T01:02:46.364Z,8.30
2022-12-23T01:05:35.545Z,8.23
2022-12-23T01:08:04.069Z,7.50
2022-12-23T01:10:32.717Z,8.60
2022-12-23T01:13:01.181Z,7.20
2022-12-23T01:15:29.811Z,7.30
2022-12-23T01:17:58.285Z,5.93
2022-12-23T01:20:28.198Z,7.10
2022-12-23T01:22:56.599Z,6.00
2022-12-23T01:25:25.074Z,6.38
2022-12-23T01:27:53.479Z,6.88
2022-12-23T01:30:23.816Z,7.00
2022-12-23T01:32:52.261Z,7.00
2022-12-23T01:35:20.792Z,8.10
2022-12-23T01:37:50.667Z,8.15
2022-12-23T01:40:19.692Z,8.05
2022-12-23T01:42:47.638Z,7.95
2022-12-23T01:45:18.119Z,8.30
2022-12-23T01:47:49.040Z,7.95
2022-12-23T01:50:19.431Z,8.13
2022-12-23T01:52:50.022Z,8.60
2022-12-23T01:55:21.477Z,8.45
2022-12-23T01:57:50.317Z,7.60
2022-12-23T02:00:36.725Z,8.57
2022-12-23T02:03:22.925Z,8.65
2022-12-23T02:05:52.367Z,8.45
2022-12-23T02:08:39.070Z,9.98
2022-12-23T02:11:21.776Z,8.60
2022-12-23T02:14:07.311Z,8.63
2022-12-23T02:16:38.189Z,9.82
2022-12-23T02:19:12.354Z,9.10
2022-12-23T02:22:01.580Z,9.18
2022-12-23T02:24:45.305Z,9.95
2022-12-23T02:27:21.155Z,10.23
2022-12-23T02:30:13.898Z,10.02
2022-12-23T02:32:52.224Z,9.43
2022-12-23T02:35:27.539Z,10.63
2022-12-23T02:37:58.933Z,11.05
2022-12-23T02:40:34.101Z,10.80
2022-12-23T02:43:05.902Z,11.02
2022-12-23T02:45:38.234Z,11.55
2022-12-23T02:48:10.773Z,11.63
2022-12-23T02:50:40.509Z,11.90
2022-12-23T02:53:12.229Z,10.95
2022-12-23T02:55:42.324Z,12.63
2022-12-23T02:58:13.283Z,13.48
2022-12-23T03:00:42.877Z,12.00
2022-12-23T03:03:13.281Z,13.05
2022-12-23T03:05:44.897Z,11.50
2022-12-23T03:08:15.858Z,13.23
2022-12-23T03:10:52.291Z,13.02
2022-12-23T03:13:25.962Z,12.45
2022-12-23T03:15:59.408Z,12.38
2022-12-23T03:18:32.870Z,13.55
2022-12-23T03:21:05.463Z,12.65
2022-12-23T03:23:38.625Z,12.35
2022-12-23T03:26:11.697Z,12.73
2022-12-23T03:28:42.695Z,12.88
2022-12-23T03:31:13.014Z,12.70
2022-12-23T03:33:44.604Z,13.07
2022-12-23T03:36:15.147Z,12.98
2022-12-23T03:38:43.955Z,13.43
2022-12-23T03:41:15.568Z,12.88
2022-12-23T03:43:50.710Z,14.73
2022-12-23T03:46:21.459Z,12.65
2022-12-23T03:48:54.107Z,14.45
2022-12-23T03:51:26.128Z,14.80
2022-12-23T03:53:56.667Z,15.32
2022-12-23T03:56:28.328Z,14.85
2022-12-23T03:58:59.722Z,13.82
2022-12-23T04:01:34.094Z,13.85
2022-12-23T04:04:06.832Z,14.32
2022-12-23T04:06:38.497Z,14.65
2022-12-23T04:09:08.274Z,13.43
2022-12-23T04:11:39.295Z,14.48
2022-12-23T04:14:09.399Z,14.82
2022-12-23T04:16:38.146Z,14.80
2022-12-23T04:19:08.429Z,15.73
2022-12-23T04:21:37.087Z,14.32
2022-12-23T04:24:06.355Z,15.52
2022-12-23T04:26:35.005Z,15.43
2022-12-23T04:29:03.769Z,14.82
2022-12-23T04:31:32.418Z,14.48
2022-12-23T04:34:01.061Z,14.63
2022-12-23T04:36:31.369Z,14.52
2022-12-23T04:38:59.992Z,14.30
2022-12-23T04:41:28.697Z,13.88
2022-12-23T04:43:57.466Z,14.48
2022-12-23T04:46:26.265Z,14.90
2022-12-23T04:48:55.070Z,14.23
2022-12-23T04:51:23.807Z,15.27
2022-12-23T04:53:53.865Z,14.73
2022-12-23T04:56:23.063Z,14.32
2022-12-23T04:58:51.754Z,13.50
2022-12-23T05:01:20.610Z,13.68
2022-12-23T05:03:49.482Z,12.50
2022-12-23T05:06:18.296Z,13.15
2022-12-23T05:08:46.811Z,12.43
2022-12-23T05:11:16.826Z,12.93
2022-12-23T05:13:45.507Z,12.65
2022-12-23T05:16:14.232Z,14.05
2022-12-23T05:18:42.868Z,13.48
2022-12-23T05:21:11.854Z,13.38
2022-12-23T05:23:40.980Z,13.65
2022-12-23T05:26:09.766Z,14.45
2022-12-23T05:28:39.817Z,13.27
2022-12-23T05:31:09.538Z,12.55
2022-12-23T05:33:38.444Z,13.45
2022-12-23T05:36:07.717Z,13.45
2022-12-23T05:38:36.462Z,13.35
2022-12-23T05:41:05.263Z,12.93
2022-12-23T05:43:34.040Z,12.57
2022-12-23T05:46:04.432Z,12.90
2022-12-23T05:48:33.129Z,14.05
2022-12-23T05:51:02.217Z,12.68
2022-12-23T05:53:30.946Z,12.27
2022-12-23T05:55:59.691Z,12.60
2022-12-23T05:58:28.646Z,13.55
2022-12-23T06:00:57.362Z,12.88
2022-12-23T06:03:27.459Z,14.40
2022-12-23T06:05:56.343Z,12.80
2022-12-23T06:08:25.302Z,13.73
2022-12-23T06:10:54.188Z,14.13
2022-12-23T06:13:22.969Z,14.00
2022-12-23T06:15:51.746Z,14.45
2022-12-23T06:18:20.451Z,15.23
2022-12-23T06:20:50.926Z,14.40
2022-12-23T06:23:19.590Z,15.35
2022-12-23T06:25:48.199Z,17.45
2022-12-23T06:28:16.916Z,15.55
2022-12-23T06:30:45.651Z,16.05
2022-12-23T06:33:14.735Z,16.33
2022-12-23T06:35:43.377Z,15.93
2022-12-23T06:38:14.785Z,16.75
2022-12-23T06:40:43.450Z,16.13
2022-12-23T06:43:13.548Z,15.10
2022-12-23T06:45:42.660Z,15.40
2022-12-23T06:48:11.386Z,17.33
2022-12-23T06:50:40.211Z,15.93
2022-12-23T06:53:08.910Z,15.60
2022-12-23T06:55:39.191Z,15.50
2022-12-23T06:58:07.989Z,14.20
2022-12-23T07:00:36.718Z,15.52
2022-12-23T07:03:05.593Z,15.75
2022-12-23T07:05:37.718Z,15.48
2022-12-23T07:08:06.733Z,14.15
2022-12-23T07:10:35.865Z,13.95
2022-12-23T07:13:05.962Z,13.48
2022-12-23T07:15:34.693Z,14.30
2022-12-23T07:18:03.651Z,15.65
2022-12-23T07:20:32.462Z,15.23
2022-12-23T07:23:01.129Z,14.75
2022-12-23T07:25:30.388Z,14.30
2022-12-23T07:27:59.104Z,14.98
2022-12-23T07:30:29.339Z,14.77
2022-12-23T07:32:57.877Z,16.13
2022-12-23T07:35:26.660Z,14.82
2022-12-23T07:37:55.726Z,15.70
2022-12-23T07:40:24.533Z,14.23
2022-12-23T07:42:56.184Z,14.55
2022-12-23T07:45:25.038Z,14.10
2022-12-23T07:47:55.653Z,13.63
2022-12-23T07:50:24.507Z,13.70
2022-12-23T07:52:53.675Z,13.70
2022-12-23T07:55:22.568Z,13.82
2022-12-23T07:57:51.588Z,13.75
2022-12-23T08:00:20.803Z,13.35
2022-12-23T08:02:50.022Z,13.23
2022-12-23T08:05:20.769Z,13.13
2022-12-23T08:07:51.765Z,13.80
2022-12-23T08:10:20.585Z,12.30
2022-12-23T08:12:49.229Z,12.30
2022-12-23T08:15:17.952Z,11.68
2022-12-23T08:17:46.649Z,12.73
2022-12-23T08:20:15.282Z,12.07
2022-12-23T08:22:45.309Z,12.07
2022-12-23T08:25:13.983Z,11.43
2022-12-23T08:27:42.644Z,12.10
2022-12-23T08:30:11.999Z,12.07
2022-12-23T08:32:40.606Z,11.00
2022-12-23T08:35:09.597Z,12.15
2022-12-23T08:37:38.342Z,11.57
2022-12-23T08:40:09.247Z,11.77
2022-12-23T08:42:37.978Z,12.35
2022-12-23T08:45:07.094Z,13.50
2022-12-23T08:47:35.787Z,13.90
2022-12-23T08:50:04.560Z,13.27
2022-12-23T08:52:33.317Z,12.05
2022-12-23T08:55:02.492Z,13.10
2022-12-23T08:57:32.747Z,13.45
2022-12-23T09:00:02.214Z,12.50
2022-12-23T09:02:31.148Z,12.85
2022-12-23T09:05:00.034Z,13.27
2022-12-23T09:07:28.809Z,13.88
2022-12-23T09:09:57.489Z,14.38
2022-12-23T09:12:26.149Z,15.00
2022-12-23T09:14:56.279Z,14.88
2022-12-23T09:17:25.037Z,14.65
2022-12-23T09:19:53.830Z,15.05
2022-12-23T09:22:22.523Z,16.27
2022-12-23T09:24:51.451Z,16.77
2022-12-23T09:27:20.109Z,15.32
2022-12-23T09:29:48.965Z,15.15
2022-12-23T09:32:19.450Z,15.32
2022-12-23T09:34:48.177Z,14.93
2022-12-23T09:37:17.423Z,13.73
2022-12-23T09:39:46.145Z,13.60
2022-12-23T09:42:24.030Z,14.43
2022-12-23T09:45:03.029Z,13.57
2022-12-23T09:47:34.353Z,12.98
2022-12-23T09:50:04.942Z,13.20
2022-12-23T09:52:39.157Z,12.73
2022-12-23T09:55:08.970Z,13.05
2022-12-23T09:57:41.776Z,12.60
2022-12-23T10:00:13.464Z,12.48
2022-12-23T10:02:49.074Z,11.05
2022-12-23T10:05:22.342Z,12.00
2022-12-23T10:07:52.239Z,11.73
2022-12-23T10:10:26.535Z,11.40
2022-12-23T10:12:55.991Z,11.05
2022-12-23T10:15:27.004Z,11.52
2022-12-23T10:17:58.756Z,11.30
2022-12-23T10:20:31.955Z,12.07
2022-12-23T10:23:01.714Z,11.18
2022-12-23T10:25:33.228Z,11.75
2022-12-23T10:28:01.833Z,11.68
2022-12-23T10:31:05.385Z,10.88
2022-12-23T10:33:24.520Z,11.85
2022-12-23T10:35:58.437Z,11.82
2022-12-23T10:38:34.671Z,11.57
2022-12-23T10:41:09.488Z,13.65
2022-12-23T10:43:44.384Z,10.05
2022-12-23T10:46:17.883Z,10.80
2022-12-23T10:48:52.928Z,10.55
2022-12-23T10:51:23.203Z,10.95
2022-12-23T10:53:53.558Z,11.10
2022-12-23T10:56:23.301Z,11.23
2022-12-23T10:58:53.380Z,10.70
2022-12-23T11:01:26.977Z,11.18
2022-12-23T11:04:00.204Z,11.13
2022-12-23T11:06:35.004Z,11.35
2022-12-23T11:09:06.979Z,10.73
2022-12-23T11:11:55.071Z,11.90
2022-12-23T11:14:34.263Z,12.85
2022-12-23T11:17:03.344Z,12.32
2022-12-23T11:19:33.599Z,11.57
2022-12-23T11:22:03.139Z,11.57
2022-12-23T11:24:39.572Z,10.80
2022-12-23T11:27:14.422Z,10.52
2022-12-23T11:29:46.527Z,10.65
2022-12-23T11:32:18.538Z,10.15
2022-12-23T11:34:49.226Z,10.07
2022-12-23T11:37:29.527Z,11.32
2022-12-23T11:39:58.344Z,9.55
2022-12-23T11:42:30.321Z,10.57
2022-12-23T11:45:00.213Z,10.65
2022-12-23T11:47:31.106Z,9.55
2022-12-23T11:50:03.301Z,8.95
2022-12-23T11:52:33.501Z,8.57
2022-12-23T11:55:03.313Z,9.65
2022-12-23T11:57:35.628Z,8.82
2022-12-23T12:00:06.157Z,8.77
2022-12-23T12:02:37.562Z,7.35
2022-12-23T12:05:11.196Z,7.93
2022-12-23T12:07:43.976Z,7.95
2022-12-23T12:10:18.789Z,7.13
2022-12-23T12:12:52.871Z,8.50
2022-12-23T12:15:28.163Z,12.15
2022-12-23T12:17:58.024Z,24.85
2022-12-23T12:20:30.936Z,26.08
2022-12-23T12:23:01.738Z,20.67
2022-12-23T12:25:39.655Z,17.92
2022-12-23T12:28:13.408Z,15.20
2022-12-23T12:30:47.689Z,15.77
2022-12-23T12:33:19.383Z,11.90
2022-12-23T12:35:53.932Z,8.88
2022-12-23T12:38:26.092Z,6.65
2022-12-23T12:40:57.810Z,6.07
2022-12-23T12:43:30.007Z,5.93
2022-12-23T12:46:05.224Z,5.50
2022-12-23T12:48:41.541Z,4.78
2022-12-23T12:51:15.133Z,5.85
2022-12-23T12:53:48.297Z,5.43
2022-12-23T12:56:20.850Z,6.35
2022-12-23T12:58:49.682Z,10.65
2022-12-23T13:01:26.079Z,10.48
2022-12-23T13:04:06.796Z,10.05
2022-12-23T13:06:42.139Z,9.15
2022-12-23T13:09:15.190Z,5.97
2022-12-23T13:11:48.085Z,6.00
2022-12-23T13:14:23.852Z,5.80
2022-12-23T13:16:55.477Z,5.75
2022-12-23T13:19:27.195Z,5.20
2022-12-23T13:22:03.987Z,5.53
2022-12-23T13:24:35.305Z,5.97
2022-12-23T13:27:09.741Z,5.70
2022-12-23T13:29:57.800Z,6.00
2022-12-23T13:32:33.320Z,4.88
2022-12-23T13:35:05.913Z,5.72
2022-12-23T13:37:41.847Z,5.10
2022-12-23T13:40:18.833Z,4.40
2022-12-23T13:42:53.140Z,4.32
2022-12-23T13:45:22.643Z,4.85
2022-12-23T13:48:01.160Z,5.05
2022-12-23T13:50:35.255Z,4.00
2022-12-23T13:53:11.247Z,3.75
2022-12-23T13:55:54.962Z,6.13
2022-12-23T13:58:24.646Z,5.65
2022-12-23T14:00:59.455Z,4.95
2022-12-23T14:03:35.118Z,4.38
2022-12-23T14:06:22.627Z,4.45
2022-12-23T14:08:53.641Z,3.47
2022-12-23T14:11:24.163Z,3.22
2022-12-23T14:13:56.513Z,3.20
2022-12-23T14:16:30.991Z,3.20
2022-12-23T14:19:16.584Z,3.20
2022-12-23T14:21:50.052Z,3.50
2022-12-23T14:24:36.564Z,3.58
2022-12-23T14:27:19.957Z,3.78
2022-12-23T14:29:58.610Z,3.63
2022-12-23T14:32:38.007Z,3.13
2022-12-23T14:35:21.915Z,2.60
2022-12-23T14:38:08.805Z,2.55
2022-12-23T14:41:01.870Z,2.70
2022-12-23T14:43:52.883Z,2.60
2022-12-23T14:46:42.766Z,2.33
2022-12-23T14:49:38.479Z,2.33
2022-12-23T14:52:23.461Z,2.60
2022-12-23T14:55:28.067Z,2.60
2022-12-23T14:57:41.888Z,5.32
2022-12-23T15:00:13.087Z,10.48
2022-12-23T15:02:42.683Z,11.02
2022-12-23T15:05:12.321Z,13.40
2022-12-23T15:07:43.115Z,7.63
2022-12-23T15:10:18.141Z,4.95
2022-12-23T15:12:49.190Z,4.10
2022-12-23T15:15:21.513Z,3.50
2022-12-23T15:17:51.112Z,3.88
2022-12-23T15:20:21.882Z,3.13
2022-12-23T15:22:52.312Z,3.85
2022-12-23T15:25:23.135Z,3.90
2022-12-23T15:27:57.351Z,3.97
2022-12-23T15:30:34.200Z,4.40
2022-12-23T15:33:08.619Z,5.10
2022-12-23T15:35:46.109Z,5.88
2022-12-23T15:38:16.579Z,6.07
2022-12-23T15:40:46.161Z,6.82
2022-12-23T15:43:20.215Z,6.70
2022-12-23T15:45:50.760Z,8.05
2022-12-23T15:48:26.895Z,8.43
2022-12-23T15:50:57.476Z,8.80
2022-12-23T15:53:30.810Z,9.82
2022-12-23T15:56:00.217Z,10.13
2022-12-23T15:58:30.079Z,10.57
2022-12-23T16:01:02.314Z,11.32
2022-12-23T16:03:35.051Z,10.30
2022-12-23T16:06:12.119Z,9.57
2022-12-23T16:08:41.277Z,8.55
2022-12-23T16:11:15.756Z,9.18
2022-12-23T16:13:58.470Z,8.57
2022-12-23T16:16:42.640Z,8.90
2022-12-23T16:19:26.569Z,8.98
2022-12-23T16:21:55.663Z,9.10
2022-12-23T16:24:24.664Z,8.82
2022-12-23T16:26:53.758Z,8.20
2022-12-23T16:29:23.339Z,8.75
2022-12-23T16:32:01.801Z,7.93
2022-12-23T16:34:33.437Z,8.88
2022-12-23T16:37:02.881Z,8.07
2022-12-23T16:39:31.964Z,8.00
2022-12-23T16:42:01.156Z,8.35
2022-12-23T16:44:30.317Z,7.53
2022-12-23T16:47:04.148Z,6.90
2022-12-23T16:49:34.375Z,6.57
2022-12-23T16:52:03.573Z,5.53
2022-12-23T16:54:32.607Z,5.47
2022-12-23T16:57:01.644Z,4.85
2022-12-23T16:59:30.796Z,4.97
2022-12-23T17:02:03.700Z,4.80
2022-12-23T17:04:33.102Z,4.40
2022-12-23T17:07:01.920Z,5.88
2022-12-23T17:09:30.890Z,6.97
2022-12-23T17:11:59.652Z,6.00
2022-12-23T17:14:28.381Z,4.93
2022-12-23T17:17:00.078Z,4.65
2022-12-23T17:19:32.240Z,3.88
2022-12-23T17:22:02.485Z,3.95
2022-12-23T17:24:31.330Z,3.95
2022-12-23T17:27:00.431Z,4.10
2022-12-23T17:29:29.514Z,4.05
2022-12-23T17:31:58.744Z,3.72
2022-12-23T17:34:27.879Z,3.88
2022-12-23T17:37:01.010Z,3.97
2022-12-23T17:39:29.997Z,3.72
2022-12-23T17:41:59.071Z,3.75
2022-12-23T17:44:28.140Z,4.20
2022-12-23T17:46:57.253Z,3.63
2022-12-23T17:49:26.171Z,4.03
2022-12-23T17:51:55.127Z,3.80
2022-12-23T17:54:26.636Z,3.88
2022-12-23T17:56:55.414Z,4.07
2022-12-23T17:59:24.437Z,4.57
2022-12-23T18:01:53.658Z,3.92
2022-12-23T18:04:22.801Z,4.43
2022-12-23T18:06:51.814Z,4.82
2022-12-23T18:09:21.525Z,4.72
2022-12-23T18:11:52.066Z,3.70
2022-12-23T18:14:28.043Z,4.03
2022-12-23T18:16:57.212Z,4.45
2022-12-23T18:19:26.084Z,3.42
2022-12-23T18:21:55.319Z,4.43
2022-12-23T18:24:24.428Z,2.97
2022-12-23T18:26:54.982Z,3.60
2022-12-23T18:29:24.070Z,3.45
2022-12-23T18:31:53.281Z,3.13
2022-12-23T18:34:22.791Z,3.42
2022-12-23T18:36:52.625Z,4.13
2022-12-23T18:39:21.984Z,3.13
2022-12-23T18:41:51.022Z,3.90
2022-12-23T18:44:21.969Z,4.63
2022-12-23T18:46:50.944Z,3.20
2022-12-23T18:49:19.967Z,3.50
2022-12-23T18:51:48.719Z,3.97
2022-12-23T18:54:18.039Z,3.83
2022-12-23T18:56:47.176Z,3.70
2022-12-23T18:59:21.337Z,3.67
2022-12-23T19:01:57.813Z,4.55
2022-12-23T19:04:27.098Z,4.28
2022-12-23T19:06:56.846Z,4.55
2022-12-23T19:09:26.629Z,4.20
2022-12-23T19:11:55.787Z,5.13
2022-12-23T19:14:24.937Z,4.60
2022-12-23T19:16:53.742Z,5.43
2022-12-23T19:19:24.203Z,4.13
2022-12-23T19:21:53.512Z,5.70
2022-12-23T19:24:22.669Z,5.13
2022-12-23T19:26:52.018Z,4.95
2022-12-23T19:29:21.646Z,5.15
2022-12-23T19:31:50.540Z,4.07
2022-12-23T19:34:19.529Z,5.10
2022-12-23T19:36:49.979Z,4.47
2022-12-23T19:39:22.085Z,5.07
2022-12-23T19:41:50.938Z,4.75
2022-12-23T19:44:20.252Z,5.07
2022-12-23T19:46:50.853Z,5.13
2022-12-23T19:49:20.563Z,4.38
2022-12-23T19:51:50.988Z,5.18
2022-12-23T19:54:20.691Z,5.68
2022-12-23T19:56:51.554Z,5.20
2022-12-23T19:59:21.179Z,4.63
2022-12-23T20:01:50.178Z,4.63
2022-12-23T20:04:19.383Z,4.70
2022-12-23T20:06:48.388Z,5.72
2022-12-23T20:09:19.123Z,4.72
2022-12-23T20:11:49.137Z,5.10
2022-12-23T20:14:19.682Z,4.85
2022-12-23T20:16:49.103Z,5.13
2022-12-23T20:19:18.192Z,5.00
2022-12-23T20:21:47.263Z,5.00
2022-12-23T20:24:16.674Z,5.25
2022-12-23T20:26:47.788Z,4.90
2022-12-23T20:29:16.689Z,4.22
2022-12-23T20:31:45.899Z,4.68
2022-12-23T20:34:16.908Z,4.65
2022-12-23T20:36:46.418Z,5.00
2022-12-23T20:39:15.614Z,4.63
2022-12-23T20:41:54.244Z,5.00
2022-12-23T20:44:34.652Z,4.53
2022-12-23T20:47:05.895Z,4.70
2022-12-23T20:49:35.713Z,4.53
2022-12-23T20:52:04.787Z,5.45
2022-12-23T20:54:34.164Z,4.35
2022-12-23T20:57:04.869Z,4.45
2022-12-23T20:59:34.388Z,4.65
2022-12-23T21:02:03.307Z,4.47
2022-12-23T21:04:32.884Z,4.88
2022-12-23T21:07:02.144Z,3.95
2022-12-23T21:09:32.045Z,4.85
2022-12-23T21:12:00.880Z,4.72
2022-12-23T21:14:31.636Z,5.30
2022-12-23T21:17:00.417Z,4.93
2022-12-23T21:19:29.605Z,5.50
2022-12-23T21:21:59.786Z,5.07
2022-12-23T21:24:28.934Z,5.28
2022-12-23T21:26:57.846Z,4.95
2022-12-23T21:29:27.606Z,5.10
2022-12-23T21:31:59.426Z,5.15
2022-12-23T21:34:28.225Z,5.22
2022-12-23T21:36:57.494Z,5.38
2022-12-23T21:39:26.529Z,5.72
2022-12-23T21:41:55.521Z,5.03
2022-12-23T21:44:24.777Z,5.20
2022-12-23T21:46:54.080Z,4.45
2022-12-23T21:49:24.607Z,4.78
2022-12-23T21:51:53.529Z,5.22
2022-12-23T21:54:22.523Z,5.25
2022-12-23T21:56:51.195Z,3.55
2022-12-23T21:59:20.037Z,4.40
2022-12-23T22:01:50.399Z,4.93
2022-12-23T22:04:19.464Z,4.45
2022-12-23T22:06:50.180Z,4.53
2022-12-23T22:09:20.367Z,4.97
2022-12-23T22:11:49.938Z,4.88
2022-12-23T22:14:19.848Z,4.80
2022-12-23T22:16:48.949Z,5.22
2022-12-23T22:19:18.084Z,4.88
2022-12-23T22:21:46.899Z,5.38
2022-12-23T22:24:17.064Z,5.30
2022-12-23T22:26:45.646Z,5.70
2022-12-23T22:29:14.434Z,5.20
2022-12-23T22:31:45.415Z,5.25
2022-12-23T22:34:16.516Z,5.63
2022-12-23T22:36:45.543Z,5.68
2022-12-23T22:39:20.211Z,4.78
2022-12-23T22:41:52.260Z,4.85
2022-12-23T22:44:21.530Z,4.82
2022-12-23T22:46:50.582Z,4.97
2022-12-23T22:49:20.602Z,4.25
2022-12-23T22:51:49.392Z,5.03
2022-12-23T22:54:18.618Z,4.68
2022-12-23T22:56:47.510Z,5.20
2022-12-23T22:59:22.440Z,4.97
2022-12-23T23:01:52.151Z,4.50
2022-12-23T23:04:21.153Z,4.28
2022-12-23T23:06:49.983Z,4.13
2022-12-23T23:09:20.289Z,4.25
2022-12-23T23:11:49.567Z,3.88
2022-12-23T23:14:20.924Z,5.15
2022-12-23T23:16:51.583Z,4.40
2022-12-23T23:19:22.015Z,5.28
2022-12-23T23:21:54.612Z,4.00
2022-12-23T23:24:29.303Z,4.35
2022-12-23T23:27:00.850Z,4.82
2022-12-23T23:29:30.068Z,4.28
2022-12-23T23:32:00.720Z,4.95
2022-12-23T23:34:30.080Z,5.05
2022-12-23T23:36:59.382Z,4.15
2022-12-23T23:39:28.777Z,4.32
2022-12-23T23:41:57.858Z,4.25
2022-12-23T23:44:27.190Z,5.50
2022-12-23T23:46:56.384Z,4.38
2022-12-23T23:49:27.057Z,4.13
2022-12-23T23:51:56.421Z,4.47
2022-12-23T23:54:25.586Z,4.10
2022-12-23T23:56:54.825Z,5.05
2022-12-23T23:59:23.925Z,4.30
